PWSweather.com
Personal Weather Stations
Station Observations
IHTIMAN1
Neighbourhood 1, IhtimanBG 2050

Neighbourhood 1IhtimanBG 2050

Lat: 42.436852, Lon: 23.817921

Elevation: 2066

Station Type: Oregon Scientific WMR968

http://ihtiman-meteo.com

High Low Average
Temperature 68.2°F20.1°C 41.5°F5.3°C 53.8°F12.1°C
Dew Point 49.6°F9.8°C 32.6°F0.3°C 40.8°F4.9°C
Winds 10.4 mph 16.7 kmh Calm Calm 4.0 mph WNW6.4 kmh WNW
Wind Gusts 19.6 mph31.5 kmh -- 7.0 mph11.3 kmh
Humidity 98% 32% 67%
Pressure 30.24 in1024.0 mb 30.12 in1020.0 mb -
Precipitation 0.00 in0.0 mm - -
Hour Temp Dew Point Humidity Winds Wind Gusts Pressure Precip Precip Rate Daily Precip Total
12:00 AM 50.2°F10.1°C 49.6°F9.8°C 98% 6.9 mph NNW11.1 kmh NNW 10.4 mph16.7 kmh 30.12 in1020.0 mb - 0.00 in0.0 mm 0.00 in0.0 mm
12:10 AM 49.8°F9.9°C 49.3°F9.6°C 98% 6.9 mph NNW11.1 kmh NNW 10.4 mph16.7 kmh 30.12 in1020.0 mb - 0.00 in0.0 mm 0.00 in0.0 mm
12:20 AM 49.5°F9.7°C 48.9°F9.4°C 98% 6.9 mph N11.1 kmh N 9.2 mph14.8 kmh 30.12 in1020.0 mb - 0.00 in0.0 mm 0.00 in0.0 mm
12:30 AM 49.5°F9.7°C 48.9°F9.4°C 98% 5.8 mph NW9.3 kmh NW 8.1 mph13.0 kmh 30.12 in1020.0 mb - 0.00 in0.0 mm 0.00 in0.0 mm
12:40 AM 49.5°F9.7°C 48.9°F9.4°C 98% 5.8 mph NW9.3 kmh NW 8.1 mph13.0 kmh 30.12 in1020.0 mb - 0.00 in0.0 mm 0.00 in0.0 mm
12:50 AM 49.3°F9.6°C 48.7°F9.3°C 98% 5.8 mph NW9.3 kmh NW 8.1 mph13.0 kmh 30.12 in1020.0 mb - 0.00 in0.0 mm 0.00 in0.0 mm
01:00 AM 49.3°F9.6°C 48.7°F9.3°C 98% 5.8 mph NW9.3 kmh NW 10.4 mph16.7 kmh 30.12 in1020.0 mb - 0.00 in0.0 mm 0.00 in0.0 mm
01:10 AM 49.1°F9.5°C 48.6°F9.2°C 98% 5.8 mph NW9.3 kmh NW 8.1 mph13.0 kmh 30.12 in1020.0 mb - 0.00 in0.0 mm 0.00 in0.0 mm
01:20 AM 48.7°F9.3°C 48.2°F9.0°C 98% 6.9 mph NW11.1 kmh NW 8.1 mph13.0 kmh 30.15 in1021.0 mb - 0.00 in0.0 mm 0.00 in0.0 mm
01:30 AM 48.5°F9.2°C 48.0°F8.9°C 98% 3.5 mph NW5.6 kmh NW 5.8 mph9.3 kmh 30.15 in1021.0 mb - 0.00 in0.0 mm 0.00 in0.0 mm
01:40 AM 48.1°F8.9°C 47.5°F8.6°C 98% 4.6 mph NW7.4 kmh NW 5.8 mph9.3 kmh 30.15 in1021.0 mb - 0.00 in0.0 mm 0.00 in0.0 mm
01:50 AM 47.8°F8.8°C 47.3°F8.5°C 98% 4.6 mph NW7.4 kmh NW 5.8 mph9.3 kmh 30.15 in1021.0 mb - 0.00 in0.0 mm 0.00 in0.0 mm
02:00 AM 47.5°F8.6°C 46.9°F8.3°C 98% 3.5 mph NW5.6 kmh NW 5.8 mph9.3 kmh 30.15 in1021.0 mb - 0.00 in0.0 mm 0.00 in0.0 mm
02:10 AM 47.3°F8.5°C 46.8°F8.2°C 98% 3.5 mph NW5.6 kmh NW 5.8 mph9.3 kmh 30.15 in1021.0 mb - 0.00 in0.0 mm 0.00 in0.0 mm
02:20 AM 47.3°F8.5°C 46.8°F8.2°C 98% 4.6 mph NNW7.4 kmh NNW 5.8 mph9.3 kmh 30.12 in1020.0 mb - 0.00 in0.0 mm 0.00 in0.0 mm
02:30 AM 47.3°F8.5°C 46.8°F8.2°C 98% 1.2 mph NW1.9 kmh NW 3.5 mph5.6 kmh 30.12 in1020.0 mb - 0.00 in0.0 mm 0.00 in0.0 mm
02:40 AM 47.5°F8.6°C 46.9°F8.3°C 98% 3.5 mph NW5.6 kmh NW 8.1 mph13.0 kmh 30.12 in1020.0 mb - 0.00 in0.0 mm 0.00 in0.0 mm
02:50 AM 47.7°F8.7°C 47.1°F8.4°C 98% 4.6 mph NNW7.4 kmh NNW 5.8 mph9.3 kmh 30.12 in1020.0 mb - 0.00 in0.0 mm 0.00 in0.0 mm
03:00 AM 47.7°F8.7°C 47.1°F8.4°C 98% 4.6 mph NW7.4 kmh NW 5.8 mph9.3 kmh 30.12 in1020.0 mb - 0.00 in0.0 mm 0.00 in0.0 mm
03:10 AM 47.7°F8.7°C 47.1°F8.4°C 98% Calm Calm 3.5 mph5.6 kmh 30.12 in1020.0 mb - 0.00 in0.0 mm 0.00 in0.0 mm
03:20 AM 47.7°F8.7°C 47.1°F8.4°C 98% 1.2 mph NW1.9 kmh NW 3.5 mph5.6 kmh 30.12 in1020.0 mb - 0.00 in0.0 mm 0.00 in0.0 mm
03:30 AM 47.7°F8.7°C 47.1°F8.4°C 98% 1.2 mph NW1.9 kmh NW 3.5 mph5.6 kmh 30.12 in1020.0 mb - 0.00 in0.0 mm 0.00 in0.0 mm
03:40 AM 47.8°F8.8°C 47.3°F8.5°C 98% Calm Calm 3.5 mph5.6 kmh 30.12 in1020.0 mb - 0.00 in0.0 mm 0.00 in0.0 mm
03:50 AM 47.8°F8.8°C 47.3°F8.5°C 98% 1.2 mph NNW1.9 kmh NNW 3.5 mph5.6 kmh 30.12 in1020.0 mb - 0.00 in0.0 mm 0.00 in0.0 mm
04:00 AM 47.8°F8.8°C 47.3°F8.5°C 98% 3.5 mph NNW5.6 kmh NNW 8.1 mph13.0 kmh 30.12 in1020.0 mb - 0.00 in0.0 mm 0.00 in0.0 mm
04:10 AM 47.7°F8.7°C 47.1°F8.4°C 98% 3.5 mph NW5.6 kmh NW 5.8 mph9.3 kmh 30.12 in1020.0 mb - 0.00 in0.0 mm 0.00 in0.0 mm
04:20 AM 47.7°F8.7°C 47.1°F8.4°C 98% 4.6 mph WNW7.4 kmh WNW 5.8 mph9.3 kmh 30.12 in1020.0 mb - 0.00 in0.0 mm 0.00 in0.0 mm
04:30 AM 47.5°F8.6°C 46.9°F8.3°C 98% 1.2 mph NW1.9 kmh NW 3.5 mph5.6 kmh 30.12 in1020.0 mb - 0.00 in0.0 mm 0.00 in0.0 mm
04:40 AM 47.5°F8.6°C 46.9°F8.3°C 98% Calm Calm 4.6 mph7.4 kmh 30.12 in1020.0 mb - 0.00 in0.0 mm 0.00 in0.0 mm
04:50 AM 47.5°F8.6°C 46.9°F8.3°C 98% 1.2 mph NW1.9 kmh NW 3.5 mph5.6 kmh 30.12 in1020.0 mb - 0.00 in0.0 mm 0.00 in0.0 mm
05:00 AM 47.5°F8.6°C 46.9°F8.3°C 98% 2.3 mph NW3.7 kmh NW 3.5 mph5.6 kmh 30.12 in1020.0 mb - 0.00 in0.0 mm 0.00 in0.0 mm
05:10 AM 47.5°F8.6°C 46.9°F8.3°C 98% 1.2 mph N1.9 kmh N 3.5 mph5.6 kmh 30.12 in1020.0 mb - 0.00 in0.0 mm 0.00 in0.0 mm
05:20 AM 47.5°F8.6°C 46.9°F8.3°C 98% 1.2 mph N1.9 kmh N 3.5 mph5.6 kmh 30.12 in1020.0 mb - 0.00 in0.0 mm 0.00 in0.0 mm
05:30 AM 47.7°F8.7°C 47.1°F8.4°C 98% 4.6 mph N7.4 kmh N 5.8 mph9.3 kmh 30.12 in1020.0 mb - 0.00 in0.0 mm 0.00 in0.0 mm
05:40 AM 47.7°F8.7°C 47.1°F8.4°C 98% 4.6 mph N7.4 kmh N 8.1 mph13.0 kmh 30.12 in1020.0 mb - 0.00 in0.0 mm 0.00 in0.0 mm
05:50 AM 47.7°F8.7°C 47.1°F8.4°C 98% 4.6 mph N7.4 kmh N 5.8 mph9.3 kmh 30.12 in1020.0 mb - 0.00 in0.0 mm 0.00 in0.0 mm
06:00 AM 47.8°F8.8°C 47.3°F8.5°C 98% 3.5 mph N5.6 kmh N 5.8 mph9.3 kmh 30.12 in1020.0 mb - 0.00 in0.0 mm 0.00 in0.0 mm
06:10 AM 47.8°F8.8°C 47.3°F8.5°C 98% 3.5 mph NNW5.6 kmh NNW 5.8 mph9.3 kmh 30.12 in1020.0 mb - 0.00 in0.0 mm 0.00 in0.0 mm
06:20 AM 47.8°F8.8°C 47.3°F8.5°C 98% 4.6 mph NW7.4 kmh NW 5.8 mph9.3 kmh 30.12 in1020.0 mb - 0.00 in0.0 mm 0.00 in0.0 mm
06:30 AM 48.0°F8.9°C 47.5°F8.6°C 98% 5.8 mph NW9.3 kmh NW 5.8 mph9.3 kmh 30.12 in1020.0 mb - 0.00 in0.0 mm 0.00 in0.0 mm
06:40 AM 48.0°F8.9°C 47.5°F8.6°C 98% 5.8 mph NW9.3 kmh NW 8.1 mph13.0 kmh 30.12 in1020.0 mb - 0.00 in0.0 mm 0.00 in0.0 mm
06:50 AM 48.0°F8.9°C 47.5°F8.6°C 98% 3.5 mph NNW5.6 kmh NNW 4.6 mph7.4 kmh 30.12 in1020.0 mb - 0.00 in0.0 mm 0.00 in0.0 mm
07:00 AM 48.0°F8.9°C 47.5°F8.6°C 98% 4.6 mph NNW7.4 kmh NNW 5.8 mph9.3 kmh 30.12 in1020.0 mb - 0.00 in0.0 mm 0.00 in0.0 mm
07:10 AM 48.0°F8.9°C 47.5°F8.6°C 98% 2.3 mph NW3.7 kmh NW 5.8 mph9.3 kmh 30.12 in1020.0 mb - 0.00 in0.0 mm 0.00 in0.0 mm
07:20 AM 48.0°F8.9°C 47.5°F8.6°C 98% 5.8 mph NW9.3 kmh NW 8.1 mph13.0 kmh 30.12 in1020.0 mb - 0.00 in0.0 mm 0.00 in0.0 mm
07:30 AM 48.2°F9.0°C 47.7°F8.7°C 98% 5.8 mph N9.3 kmh N 8.1 mph13.0 kmh 30.12 in1020.0 mb - 0.00 in0.0 mm 0.00 in0.0 mm
07:40 AM 48.6°F9.2°C 48.0°F8.9°C 98% 5.8 mph NNW9.3 kmh NNW 8.1 mph13.0 kmh 30.12 in1020.0 mb - 0.00 in0.0 mm 0.00 in0.0 mm
07:50 AM 48.6°F9.2°C 48.0°F8.9°C 98% 5.8 mph NW9.3 kmh NW 9.2 mph14.8 kmh 30.12 in1020.0 mb - 0.00 in0.0 mm 0.00 in0.0 mm
08:00 AM 48.6°F9.2°C 48.0°F8.9°C 98% 5.8 mph NNW9.3 kmh NNW 8.1 mph13.0 kmh 30.12 in1020.0 mb - 0.00 in0.0 mm 0.00 in0.0 mm
08:10 AM 49.1°F9.5°C 48.3°F9.1°C 97% 6.9 mph NW11.1 kmh NW 12.7 mph20.4 kmh 30.12 in1020.0 mb - 0.00 in0.0 mm 0.00 in0.0 mm
08:20 AM 49.5°F9.7°C 48.1°F8.9°C 95% 8.1 mph NW13.0 kmh NW 15.0 mph24.1 kmh 30.12 in1020.0 mb - 0.00 in0.0 mm 0.00 in0.0 mm
08:30 AM 50.7°F10.4°C 48.5°F9.2°C 92% 6.9 mph NW11.1 kmh NW 10.4 mph16.7 kmh 30.12 in1020.0 mb - 0.00 in0.0 mm 0.00 in0.0 mm
08:40 AM 51.0°F10.6°C 47.3°F8.5°C 87% 8.1 mph NW13.0 kmh NW 15.0 mph24.1 kmh 30.12 in1020.0 mb - 0.00 in0.0 mm 0.00 in0.0 mm
08:50 AM 51.7°F10.9°C 46.4°F8.0°C 82% 6.9 mph NNW11.1 kmh NNW 10.4 mph16.7 kmh 30.12 in1020.0 mb - 0.00 in0.0 mm 0.00 in0.0 mm
09:00 AM 52.2°F11.2°C 44.8°F7.1°C 76% 8.1 mph NNW13.0 kmh NNW 11.5 mph18.5 kmh 30.15 in1021.0 mb - 0.00 in0.0 mm 0.00 in0.0 mm
09:10 AM 52.3°F11.3°C 42.8°F6.0°C 70% 6.9 mph NNW11.1 kmh NNW 9.2 mph14.8 kmh 30.15 in1021.0 mb - 0.00 in0.0 mm 0.00 in0.0 mm
09:20 AM 53.2°F11.8°C 42.6°F5.9°C 67% 9.2 mph NW14.8 kmh NW 12.7 mph20.4 kmh 30.15 in1021.0 mb - 0.00 in0.0 mm 0.00 in0.0 mm
09:30 AM 53.9°F12.2°C 41.6°F5.3°C 63% 6.9 mph NNW11.1 kmh NNW 9.2 mph14.8 kmh 30.15 in1021.0 mb - 0.00 in0.0 mm 0.00 in0.0 mm
09:40 AM 54.7°F12.6°C 40.2°F4.6°C 58% 9.2 mph NW14.8 kmh NW 16.1 mph25.9 kmh 30.15 in1021.0 mb - 0.00 in0.0 mm 0.00 in0.0 mm
09:50 AM 55.8°F13.2°C 40.3°F4.6°C 56% 9.2 mph NW14.8 kmh NW 12.7 mph20.4 kmh 30.15 in1021.0 mb - 0.00 in0.0 mm 0.00 in0.0 mm
10:00 AM 56.9°F13.8°C 40.4°F4.7°C 54% 10.4 mph NW16.7 kmh NW 19.6 mph31.5 kmh 30.15 in1021.0 mb - 0.00 in0.0 mm 0.00 in0.0 mm
10:10 AM 58.2°F14.6°C 40.1°F4.5°C 51% 9.2 mph WNW14.8 kmh WNW 12.7 mph20.4 kmh 30.15 in1021.0 mb - 0.00 in0.0 mm 0.00 in0.0 mm
10:20 AM 58.7°F14.8°C 39.5°F4.2°C 49% 5.8 mph NNW9.3 kmh NNW 5.8 mph9.3 kmh 30.15 in1021.0 mb - 0.00 in0.0 mm 0.00 in0.0 mm
10:30 AM 59.3°F15.2°C 39.0°F3.9°C 47% 6.9 mph NNW11.1 kmh NNW 9.2 mph14.8 kmh 30.15 in1021.0 mb - 0.00 in0.0 mm 0.00 in0.0 mm
10:40 AM 60.2°F15.7°C 39.9°F4.4°C 47% 5.8 mph NW9.3 kmh NW 9.2 mph14.8 kmh 30.15 in1021.0 mb - 0.00 in0.0 mm 0.00 in0.0 mm
10:50 AM 60.4°F15.8°C 39.5°F4.2°C 46% 8.1 mph NNW13.0 kmh NNW 11.5 mph18.5 kmh 30.15 in1021.0 mb - 0.00 in0.0 mm 0.00 in0.0 mm
11:00 AM 60.6°F15.9°C 39.1°F3.9°C 45% 8.1 mph NW13.0 kmh NW 8.1 mph13.0 kmh 30.15 in1021.0 mb - 0.00 in0.0 mm 0.00 in0.0 mm
11:10 AM 61.0°F16.1°C 39.5°F4.2°C 45% 6.9 mph NW11.1 kmh NW 8.1 mph13.0 kmh 30.15 in1021.0 mb - 0.00 in0.0 mm 0.00 in0.0 mm
11:20 AM 61.3°F16.3°C 39.2°F4.0°C 44% 8.1 mph NW13.0 kmh NW 11.5 mph18.5 kmh 30.15 in1021.0 mb - 0.00 in0.0 mm 0.00 in0.0 mm
11:30 AM 61.9°F16.6°C 39.1°F3.9°C 43% 8.1 mph NW13.0 kmh NW 15.0 mph24.1 kmh 30.15 in1021.0 mb - 0.00 in0.0 mm 0.00 in0.0 mm
11:40 AM 62.4°F16.9°C 39.6°F4.2°C 43% 6.9 mph NNW11.1 kmh NNW 8.1 mph13.0 kmh 30.15 in1021.0 mb - 0.00 in0.0 mm 0.00 in0.0 mm
11:50 AM 63.1°F17.3°C 39.0°F3.9°C 41% 6.9 mph W11.1 kmh W 10.4 mph16.7 kmh 30.15 in1021.0 mb - 0.00 in0.0 mm 0.00 in0.0 mm
12:00 PM 62.8°F17.1°C 38.1°F3.4°C 40% 8.1 mph WNW13.0 kmh WNW 10.4 mph16.7 kmh 30.15 in1021.0 mb - 0.00 in0.0 mm 0.00 in0.0 mm
12:10 PM 64.3°F17.9°C 38.8°F3.8°C 39% 8.1 mph N13.0 kmh N 15.0 mph24.1 kmh 30.15 in1021.0 mb - 0.00 in0.0 mm 0.00 in0.0 mm
12:40 PM 65.3°F18.5°C 39.0°F3.9°C 38% 5.8 mph NW9.3 kmh NW 9.2 mph14.8 kmh 30.15 in1021.0 mb - 0.00 in0.0 mm 0.00 in0.0 mm
12:50 PM 65.7°F18.7°C 38.7°F3.7°C 37% 9.2 mph N14.8 kmh N 12.7 mph20.4 kmh 30.15 in1021.0 mb - 0.00 in0.0 mm 0.00 in0.0 mm
01:00 PM 66.1°F18.9°C 39.0°F3.9°C 37% 6.9 mph NW11.1 kmh NW 10.4 mph16.7 kmh 30.15 in1021.0 mb - 0.00 in0.0 mm 0.00 in0.0 mm
01:10 PM 66.2°F19.0°C 38.4°F3.6°C 36% 5.8 mph WNW9.3 kmh WNW 8.1 mph13.0 kmh 30.15 in1021.0 mb - 0.00 in0.0 mm 0.00 in0.0 mm
01:20 PM 67.2°F19.6°C 39.3°F4.1°C 36% 5.8 mph NNE9.3 kmh NNE 8.1 mph13.0 kmh 30.15 in1021.0 mb - 0.00 in0.0 mm 0.00 in0.0 mm
01:30 PM 66.2°F19.0°C 37.7°F3.2°C 35% 6.9 mph N11.1 kmh N 6.9 mph11.1 kmh 30.12 in1020.0 mb - 0.00 in0.0 mm 0.00 in0.0 mm
01:40 PM 67.4°F19.7°C 38.0°F3.3°C 34% 4.6 mph NNW7.4 kmh NNW 8.1 mph13.0 kmh 30.12 in1020.0 mb - 0.00 in0.0 mm 0.00 in0.0 mm
01:50 PM 65.4°F18.6°C 36.3°F2.4°C 34% 8.1 mph N13.0 kmh N 9.2 mph14.8 kmh 30.12 in1020.0 mb - 0.00 in0.0 mm 0.00 in0.0 mm
02:00 PM 67.5°F19.7°C 38.2°F3.4°C 34% 6.9 mph NNW11.1 kmh NNW 10.4 mph16.7 kmh 30.12 in1020.0 mb - 0.00 in0.0 mm 0.00 in0.0 mm
02:10 PM 67.6°F19.8°C 37.5°F3.1°C 33% 4.6 mph NW7.4 kmh NW 9.2 mph14.8 kmh 30.12 in1020.0 mb - 0.00 in0.0 mm 0.00 in0.0 mm
02:20 PM 67.9°F19.9°C 37.8°F3.2°C 33% 5.8 mph NW9.3 kmh NW 8.1 mph13.0 kmh 30.12 in1020.0 mb - 0.00 in0.0 mm 0.00 in0.0 mm
02:30 PM 68.2°F20.1°C 37.2°F2.9°C 32% 8.1 mph NNW13.0 kmh NNW 12.7 mph20.4 kmh 30.12 in1020.0 mb - 0.00 in0.0 mm 0.00 in0.0 mm
02:40 PM 67.5°F19.7°C 36.6°F2.6°C 32% 9.2 mph N14.8 kmh N 11.5 mph18.5 kmh 30.12 in1020.0 mb - 0.00 in0.0 mm 0.00 in0.0 mm
02:50 PM 66.7°F19.3°C 36.6°F2.6°C 33% 5.8 mph N9.3 kmh N 8.1 mph13.0 kmh 30.12 in1020.0 mb - 0.00 in0.0 mm 0.00 in0.0 mm
03:00 PM 66.9°F19.4°C 36.9°F2.7°C 33% 5.8 mph N9.3 kmh N 6.9 mph11.1 kmh 30.12 in1020.0 mb - 0.00 in0.0 mm 0.00 in0.0 mm
03:10 PM 66.4°F19.1°C 36.4°F2.4°C 33% 5.8 mph NNW9.3 kmh NNW 8.1 mph13.0 kmh 30.12 in1020.0 mb - 0.00 in0.0 mm 0.00 in0.0 mm
03:20 PM 66.2°F19.0°C 36.2°F2.3°C 33% 5.8 mph N9.3 kmh N 5.8 mph9.3 kmh 30.12 in1020.0 mb - 0.00 in0.0 mm 0.00 in0.0 mm
03:30 PM 66.4°F19.1°C 36.4°F2.4°C 33% 4.6 mph N7.4 kmh N 5.8 mph9.3 kmh 30.12 in1020.0 mb - 0.00 in0.0 mm 0.00 in0.0 mm
03:40 PM 65.7°F18.7°C 35.8°F2.1°C 33% 6.9 mph NNW11.1 kmh NNW 8.1 mph13.0 kmh 30.12 in1020.0 mb - 0.00 in0.0 mm 0.00 in0.0 mm
03:50 PM 65.1°F18.4°C 35.3°F1.8°C 33% 6.9 mph N11.1 kmh N 9.2 mph14.8 kmh 30.12 in1020.0 mb - 0.00 in0.0 mm 0.00 in0.0 mm
04:00 PM 64.8°F18.2°C 35.0°F1.7°C 33% 3.5 mph N5.6 kmh N 10.4 mph16.7 kmh 30.12 in1020.0 mb - 0.00 in0.0 mm 0.00 in0.0 mm
04:10 PM 64.8°F18.2°C 35.0°F1.7°C 33% 5.8 mph N9.3 kmh N 8.1 mph13.0 kmh 30.12 in1020.0 mb - 0.00 in0.0 mm 0.00 in0.0 mm
04:20 PM 64.3°F17.9°C 34.6°F1.4°C 33% 3.5 mph N5.6 kmh N 4.6 mph7.4 kmh 30.12 in1020.0 mb - 0.00 in0.0 mm 0.00 in0.0 mm
04:30 PM 64.2°F17.9°C 35.2°F1.8°C 34% 5.8 mph N9.3 kmh N 9.2 mph14.8 kmh 30.15 in1021.0 mb - 0.00 in0.0 mm 0.00 in0.0 mm
04:40 PM 64.2°F17.9°C 35.3°F1.8°C 34% 6.9 mph N11.1 kmh N 10.4 mph16.7 kmh 30.15 in1021.0 mb - 0.00 in0.0 mm 0.00 in0.0 mm
04:50 PM 63.2°F17.3°C 34.3°F1.3°C 34% 3.5 mph N5.6 kmh N 5.8 mph9.3 kmh 30.15 in1021.0 mb - 0.00 in0.0 mm 0.00 in0.0 mm
05:00 PM 63.0°F17.2°C 34.1°F1.2°C 34% 6.9 mph NNW11.1 kmh NNW 8.1 mph13.0 kmh 30.15 in1021.0 mb - 0.00 in0.0 mm 0.00 in0.0 mm
05:10 PM 62.1°F16.7°C 33.4°F0.8°C 34% 6.9 mph N11.1 kmh N 11.5 mph18.5 kmh 30.15 in1021.0 mb - 0.00 in0.0 mm 0.00 in0.0 mm
05:20 PM 61.3°F16.3°C 33.4°F0.8°C 35% 4.6 mph N7.4 kmh N 5.8 mph9.3 kmh 30.15 in1021.0 mb - 0.00 in0.0 mm 0.00 in0.0 mm
05:30 PM 61.6°F16.4°C 33.7°F0.9°C 35% 2.3 mph 3.7 kmh 3.5 mph5.6 kmh 30.15 in1021.0 mb - 0.00 in0.0 mm 0.00 in0.0 mm
05:40 PM 60.4°F15.8°C 32.6°F0.3°C 35% 4.6 mph N7.4 kmh N 8.1 mph13.0 kmh 30.15 in1021.0 mb - 0.00 in0.0 mm 0.00 in0.0 mm
05:50 PM 60.7°F15.9°C 32.9°F0.5°C 35% 3.5 mph N5.6 kmh N 5.8 mph9.3 kmh 30.15 in1021.0 mb - 0.00 in0.0 mm 0.00 in0.0 mm
06:00 PM 59.8°F15.4°C 32.8°F0.4°C 36% 3.5 mph N5.6 kmh N 5.8 mph9.3 kmh 30.15 in1021.0 mb - 0.00 in0.0 mm 0.00 in0.0 mm
06:10 PM 58.9°F14.9°C 32.6°F0.3°C 37% 3.5 mph N5.6 kmh N 4.6 mph7.4 kmh 30.15 in1021.0 mb - 0.00 in0.0 mm 0.00 in0.0 mm
06:20 PM 58.3°F14.6°C 33.4°F0.8°C 39% Calm Calm 3.5 mph5.6 kmh 30.15 in1021.0 mb - 0.00 in0.0 mm 0.00 in0.0 mm
06:30 PM 57.7°F14.3°C 34.2°F1.2°C 41% Calm Calm -- 30.15 in1021.0 mb - 0.00 in0.0 mm 0.00 in0.0 mm
06:40 PM 57.1°F13.9°C 34.2°F1.2°C 42% Calm Calm -- 30.15 in1021.0 mb - 0.00 in0.0 mm 0.00 in0.0 mm
06:50 PM 56.3°F13.5°C 34.0°F1.1°C 43% Calm Calm -- 30.18 in1022.0 mb - 0.00 in0.0 mm 0.00 in0.0 mm
07:00 PM 55.4°F13.0°C 33.8°F1.0°C 44% 2.3 mph N3.7 kmh N 3.5 mph5.6 kmh 30.18 in1022.0 mb - 0.00 in0.0 mm 0.00 in0.0 mm
07:10 PM 54.5°F12.5°C 34.1°F1.2°C 46% 3.5 mph W5.6 kmh W 3.5 mph5.6 kmh 30.18 in1022.0 mb - 0.00 in0.0 mm 0.00 in0.0 mm
07:20 PM 53.7°F12.1°C 34.4°F1.3°C 48% 3.5 mph WNW5.6 kmh WNW 3.5 mph5.6 kmh 30.18 in1022.0 mb - 0.00 in0.0 mm 0.00 in0.0 mm
07:30 PM 52.9°F11.6°C 35.3°F1.8°C 51% 2.3 mph WSW3.7 kmh WSW 3.5 mph5.6 kmh 30.18 in1022.0 mb - 0.00 in0.0 mm 0.00 in0.0 mm
07:40 PM 52.2°F11.2°C 35.6°F2.0°C 53% 3.5 mph W5.6 kmh W 4.6 mph7.4 kmh 30.18 in1022.0 mb - 0.00 in0.0 mm 0.00 in0.0 mm
07:50 PM 51.6°F10.9°C 35.5°F1.9°C 54% 3.5 mph W5.6 kmh W 3.5 mph5.6 kmh 30.18 in1022.0 mb - 0.00 in0.0 mm 0.00 in0.0 mm
08:00 PM 51.3°F10.7°C 35.2°F1.8°C 54% 4.6 mph NW7.4 kmh NW 5.8 mph9.3 kmh 30.18 in1022.0 mb - 0.00 in0.0 mm 0.00 in0.0 mm
08:10 PM 50.9°F10.5°C 35.3°F1.8°C 55% 4.6 mph NNW7.4 kmh NNW 4.6 mph7.4 kmh 30.18 in1022.0 mb - 0.00 in0.0 mm 0.00 in0.0 mm
08:20 PM 50.4°F10.2°C 35.3°F1.8°C 56% Calm Calm 3.5 mph5.6 kmh 30.21 in1023.0 mb - 0.00 in0.0 mm 0.00 in0.0 mm
08:30 PM 50.0°F10.0°C 35.4°F1.9°C 57% Calm Calm -- 30.21 in1023.0 mb - 0.00 in0.0 mm 0.00 in0.0 mm
08:40 PM 49.5°F9.7°C 35.3°F1.8°C 58% Calm Calm -- 30.21 in1023.0 mb - 0.00 in0.0 mm 0.00 in0.0 mm
09:00 PM 48.4°F9.1°C 35.2°F1.8°C 60% Calm Calm 2.3 mph3.7 kmh 30.21 in1023.0 mb - 0.00 in0.0 mm 0.00 in0.0 mm
09:10 PM 47.8°F8.8°C 35.8°F2.1°C 63% Calm Calm -- 30.21 in1023.0 mb - 0.00 in0.0 mm 0.00 in0.0 mm
09:20 PM 47.3°F8.5°C 35.7°F2.1°C 64% Calm Calm -- 30.21 in1023.0 mb - 0.00 in0.0 mm 0.00 in0.0 mm
09:30 PM 46.9°F8.3°C 35.8°F2.1°C 65% Calm Calm -- 30.21 in1023.0 mb - 0.00 in0.0 mm 0.00 in0.0 mm
09:40 PM 46.5°F8.1°C 36.1°F2.3°C 67% Calm Calm 2.3 mph3.7 kmh 30.21 in1023.0 mb - 0.00 in0.0 mm 0.00 in0.0 mm
09:50 PM 46.0°F7.8°C 36.1°F2.3°C 68% Calm Calm -- 30.21 in1023.0 mb - 0.00 in0.0 mm 0.00 in0.0 mm
10:00 PM 45.5°F7.5°C 36.3°F2.4°C 70% Calm Calm -- 30.21 in1023.0 mb - 0.00 in0.0 mm 0.00 in0.0 mm
10:10 PM 45.1°F7.3°C 35.9°F2.2°C 70% Calm Calm -- 30.21 in1023.0 mb - 0.00 in0.0 mm 0.00 in0.0 mm
10:20 PM 44.6°F7.0°C 35.8°F2.1°C 71% Calm Calm -- 30.21 in1023.0 mb - 0.00 in0.0 mm 0.00 in0.0 mm
10:30 PM 44.2°F6.8°C 35.8°F2.1°C 72% Calm Calm -- 30.21 in1023.0 mb - 0.00 in0.0 mm 0.00 in0.0 mm
10:40 PM 43.8°F6.6°C 35.7°F2.1°C 73% Calm Calm -- 30.21 in1023.0 mb - 0.00 in0.0 mm 0.00 in0.0 mm
10:50 PM 43.5°F6.4°C 35.8°F2.1°C 74% Calm Calm -- 30.24 in1024.0 mb - 0.00 in0.0 mm 0.00 in0.0 mm
11:00 PM 43.3°F6.3°C 35.9°F2.2°C 75% Calm Calm -- 30.24 in1024.0 mb - 0.00 in0.0 mm 0.00 in0.0 mm
11:10 PM 42.8°F6.0°C 35.8°F2.1°C 76% Calm Calm -- 30.24 in1024.0 mb - 0.00 in0.0 mm 0.00 in0.0 mm
11:20 PM 42.3°F5.7°C 35.6°F2.0°C 77% Calm Calm -- 30.24 in1024.0 mb - 0.00 in0.0 mm 0.00 in0.0 mm
11:30 PM 42.0°F5.6°C 35.6°F2.0°C 78% Calm Calm -- 30.24 in1024.0 mb - 0.00 in0.0 mm 0.00 in0.0 mm
11:40 PM 41.7°F5.4°C 35.4°F1.9°C 78% Calm Calm -- 30.24 in1024.0 mb - 0.00 in0.0 mm 0.00 in0.0 mm
11:50 PM 41.5°F5.3°C 35.5°F1.9°C 79% Calm Calm 3.5 mph5.6 kmh 30.24 in1024.0 mb - 0.00 in0.0 mm 0.00 in0.0 mm